EW9831 Weather Reports


time (UTC)temp
C
wind
direction
speed
KPH
gust
KPH
rain 1hr
cm
rain 24hr
cm
rain mn
cm
humidity
%
barometer
mb
20190618165603 17 200 29.0 29.0 0.05 0.33 0.33 91 1010.7
20190618165103 17 200 29.0 29.0 0.03 0.30 0.30 91 1010.7
20190618164603 17 200 29.0 32.2 0.03 0.30 0.30 91 1010.6
20190618163104 17 200 32.2 32.2 0.03 0.30 0.30 91 1010.6
20190618162603 17 200 32.2 32.2 0.03 0.30 0.30 90 1010.6
20190618162103 17 200 32.2 32.2 0.03 0.30 0.30 90 1010.6
20190618161603 17 200 32.2 32.2 0.03 0.30 0.30 90 1010.6
20190618161104 17 200 27.4 27.4 0.05 0.30 0.30 90 1010.5
20190618160603 17 200 27.4 27.4 0.05 0.30 0.30 90 1010.5
20190618160104 17 200 27.4 27.4 0.05 0.28 0.28 90 1010.5
20190618155604 17 200 27.4 27.4 0.05 0.28 0.28 90 1010.5
20190618153603 17 210 25.7 51.5 0.20 0.28 0.28 88 1010.2
20190618153103 17 210 25.7 51.5 0.20 0.28 0.28 88 1010.2
20190618152103 17 210 25.7 51.5 0.18 0.28 0.28 87 1010.2
20190618151603 17 210 25.7 66.0 0.18 0.28 0.28 87 1010.2
20190618145103 17 190 37.0 66.0 0.15 0.20 0.20 85 1010.2
20190618144603 17 190 37.0 69.2 0.15 0.20 0.20 85 1010.2
20190618143603 17 200 37.0 69.2 0.05 0.10 0.10 84 1010.0
20190618143103 17 200 37.0 69.2 0.05 0.10 0.10 84 1010.0
20190618142603 17 200 37.0 69.2 0.05 0.10 0.10 84 1010.0
20190618141603 17 200 37.0 69.2 0.05 0.10 0.10 83 1010.1
20190618141104 17 200 45.1 45.1 0.00 0.05 0.05 82 1010.1
20190618140603 18 200 45.1 45.1 0.00 0.05 0.05 82 1010.0
20190618140104 18 200 45.1 45.1 0.00 0.05 0.05 82 1010.0
20190618135603 18 200 45.1 45.1 0.00 0.05 0.05 82 1010.1
20190618135103 18 200 45.1 45.1 0.00 0.05 0.05 82 1010.1
20190618134603 18 200 45.1 45.1 0.00 0.05 0.05 81 1010.2
20190618132603 18 190 35.4 35.4 0.00 0.05 0.05 78 1010.0
20190618131603 19 190 35.4 35.4 0.00 0.05 0.05 77 1009.8
20190618131103 19 200 35.4 35.4 0.00 0.05 0.05 77 1009.8
20190618130104 19 200 35.4 35.4 0.00 0.05 0.05 77 1009.6
20190618125103 19 200 35.4 35.4 0.00 0.05 0.05 77 1009.6
20190618124603 19 200 35.4 35.4 0.00 0.05 0.05 76 1009.6
20190618124103 19 190 33.8 33.8 0.00 0.05 0.05 75 1009.6
20190618123104 19 190 33.8 33.8 0.00 0.05 0.05 75 1009.6
20190618122103 20 190 33.8 33.8 0.00 0.05 0.05 74 1009.5
20190618121603 20 190 33.8 69.2 0.00 0.05 0.05 73 1009.4
20190618120603 20 190 40.2 69.2 0.00 0.05 0.05 72 1009.3
20190618115104 20 190 40.2 69.2 0.00 0.05 0.05 72 1009.2
20190618113603 20 190 35.4 35.4 0.00 0.05 0.05 71 1009.2
20190618113103 20 190 35.4 35.4 0.00 0.05 0.05 71 1009.2
20190618112603 20 190 35.4 35.4 0.00 0.05 0.05 71 1009.1
20190618111603 20 190 35.4 38.6 0.00 0.05 0.05 72 1009.1
20190618111103 20 180 38.6 38.6 0.00 0.05 0.05 72 1009.1
20190618110104 20 180 38.6 38.6 0.00 0.05 0.05 72 1009.0
20190618105603 20 180 38.6 38.6 0.00 0.05 0.05 73 1009.1
20190618105103 20 180 38.6 38.6 0.00 0.05 0.05 73 1009.1
20190618104104 19 180 40.2 40.2 0.00 0.05 0.05 76 1009.2
20190618103603 19 180 40.2 40.2 0.00 0.05 0.05 76 1009.2
20190618102604 19 180 40.2 40.2 0.00 0.05 0.05 77 1009.2
20190618101103 18 180 35.4 35.4 0.00 0.05 0.05 79 1009.2
20190618100103 18 180 35.4 35.4 0.00 0.05 0.05 80 1009.2
20190618095604 18 180 35.4 35.4 0.00 0.05 0.05 81 1009.2
20190618095104 18 180 35.4 35.4 0.00 0.05 0.05 81 1009.2
20190618093603 17 180 37.0 37.0 0.00 0.05 0.05 83 1009.2
20190618092604 17 180 37.0 37.0 0.00 0.05 0.05 84 1009.2
20190618091103 17 170 32.2 32.2 0.00 0.05 0.05 85 1009.2
20190618090603 17 170 32.2 32.2 0.00 0.05 0.05 86 1009.2
20190618090104 17 170 32.2 32.2 0.00 0.05 0.05 86 1009.2
20190618085604 17 170 32.2 32.2 0.00 0.05 0.05 86 1009.2
20190618083604 16 170 25.7 25.7 0.00 0.05 0.05 86 1009.2
20190618083104 16 170 25.7 25.7 0.00 0.05 0.05 86 1009.2
20190618082604 16 170 25.7 25.7 0.00 0.05 0.05 87 1009.2
20190618082104 16 170 25.7 25.7 0.00 0.05 0.05 87 1009.2
20190618081604 16 170 25.7 25.7 0.00 0.05 0.05 88 1009.2
20190618080104 16 170 22.5 22.5 0.00 0.05 0.05 89 1009.2
20190618075604 15 170 22.5 22.5 0.00 0.05 0.05 89 1009.1
20190618075105 15 170 22.5 22.5 0.00 0.05 0.05 89 1009.1
20190618073104 15 160 16.1 16.1 0.00 0.05 0.05 88 1009.2
20190618072604 15 160 16.1 16.1 0.00 0.05 0.05 87 1009.2
20190618072103 15 160 16.1 16.1 0.00 0.05 0.05 87 1009.2
20190618071604 14 160 16.1 16.1 0.00 0.05 0.05 86 1009.1
20190618070604 14 140 16.1 16.1 0.00 0.05 0.05 85 1009.1
20190618070104 14 140 16.1 16.1 0.00 0.05 0.05 85 1009.1
20190618065104 14 140 16.1 16.1 0.00 0.05 0.05 84 1009.1
20190618064603 14 140 16.1 19.3 0.00 0.05 0.05 83 1009.0
20190618063603 14 140 19.3 19.3 0.05 0.05 0.05 82 1009.0
20190618063104 14 140 19.3 19.3 0.05 0.05 0.05 82 1009.0
20190618062103 14 140 19.3 19.3 0.05 0.05 0.05 81 1009.0
20190618061604 14 140 19.3 19.3 0.05 0.05 0.05 80 1008.9
20190618060603 14 140 16.1 16.1 0.05 0.05 0.05 79 1009.0
20190618060105 14 140 16.1 16.1 0.05 0.05 0.05 79 1009.0
20190618055603 14 140 16.1 16.1 0.05 0.05 0.05 77 1008.9
20190618055103 14 140 16.1 16.1 0.05 0.05 0.05 77 1008.9
20190618054104 14 140 14.5 14.5 0.00 0.00 0.00 74 1008.9
20190618053603 14 140 14.5 14.5 0.00 0.00 0.00 74 1008.9
20190618053104 14 140 14.5 14.5 0.00 0.00 0.00 74 1008.9
20190618052603 14 140 14.5 14.5 0.00 0.00 0.00 72 1008.8
20190618051604 14 140 14.5 14.5 0.00 0.00 0.00 71 1008.9
20190618051104 14 140 14.5 14.5 0.00 0.00 0.00 71 1008.9
20190618050604 14 140 14.5 14.5 0.00 0.00 0.00 71 1008.9
20190618045604 14 140 14.5 14.5 0.00 0.00 0.00 71 1008.9
20190618045103 14 140 14.5 14.5 0.00 0.00 0.00 71 1008.8
20190618044604 14 140 14.5 16.1 0.00 0.00 0.00 71 1008.8
20190618043604 14 160 16.1 16.1 0.00 0.00 0.00 71 1008.9
20190618042104 14 160 16.1 16.1 0.00 0.00 0.00 70 1008.8
20190618041604 14 160 16.1 16.1 0.00 0.00 0.00 70 1008.8
20190618041104 14 150 16.1 16.1 0.00 0.00 0.00 70 1008.8
20190618040604 15 150 16.1 16.1 0.00 0.00 0.00 69 1009.1
20190618035103 15 150 16.1 16.1 0.00 0.00 0.00 67 1009.2
20190618034604 15 150 16.1 16.1 0.00 0.00 0.00 66 1009.2
20190618034104 15 170 16.1 16.1 0.00 0.00 0.00 65 1009.2
20190618033104 15 170 16.1 16.1 0.00 0.00 0.00 62 1009.3
20190618032604 15 170 16.1 16.1 0.00 0.00 0.00 62 1009.3
20190618032104 15 170 16.1 16.1 0.00 0.00 0.00 62 1009.4
20190618031604 15 170 16.1 16.1 0.00 0.00 0.00 62 1009.4
20190618031103 15 170 12.9 12.9 0.00 0.00 0.00 62 1009.4
20190618030104 15 170 12.9 12.9 0.00 0.00 0.00 62 1009.6
20190618025604 15 170 12.9 12.9 0.00 0.00 0.00 62 1009.6
20190618024604 15 170 12.9 12.9 0.00 0.00 0.00 62 1009.6
20190618022603 15 170 11.3 11.3 0.00 0.00 0.00 63 1009.7
20190618020604 15 170 11.3 11.3 0.00 0.00 0.00 62 1009.8
20190618015104 15 170 11.3 11.3 0.00 0.00 0.00 62 1010.1
20190618014104 15 150 11.3 11.3 0.00 0.00 0.00 62 1010.1
20190618013604 15 150 11.3 11.3 0.00 0.00 0.00 62 1010.1
20190618012604 15 150 11.3 11.3 0.00 0.00 0.00 61 1010.0
20190618011604 15 150 11.3 12.9 0.00 0.00 0.00 61 1010.1
20190618010604 15 170 12.9 12.9 0.00 0.00 0.00 61 1010.3
20190618010104 15 170 12.9 12.9 0.00 0.00 0.00 61 1010.4
20190618005604 15 170 12.9 12.9 0.00 0.00 0.00 61 1010.4
20190618005103 15 170 12.9 12.9 0.00 0.00 0.00 61 1010.5
20190618004604 15 170 12.9 12.9 0.00 0.00 0.00 61 1010.5
20190618003104 15 180 12.9 12.9 0.00 0.00 0.00 63 1010.8
20190618002605 15 180 12.9 12.9 0.00 0.00 0.00 63 1010.8
20190618001604 15 180 12.9 12.9 0.00 0.00 0.00 63 1010.9
20190618001105 15 200 11.3 11.3 0.00 0.00 0.00 63 1011.0
20190618000104 15 200 11.3 11.3 0.00 0.00 0.00 62 1011.0
20190617234604 15 200 11.3 11.3 0.00 0.00 0.00 62 1011.1
20190617230105 16 160 8.0 8.0 0.00 0.00 0.00 64 1011.1
20190617225604 16 160 8.0 11.3 0.00 0.00 0.00 64 1011.1
20190617225104 16 140 11.3 11.3 0.00 0.00 0.00 64 1011.2
20190617224604 16 140 11.3 11.3 0.00 0.00 0.00 64 1011.2
20190617224104 16 140 11.3 11.3 0.00 0.00 0.00 63 1011.3
20190617223105 16 140 11.3 11.3 0.00 0.00 0.00 63 1011.2
20190617221604 16 140 11.3 11.3 0.00 0.00 0.00 64 1011.3
20190617221104 16 130 11.3 11.3 0.00 0.00 0.00 64 1011.3
20190617220604 16 130 11.3 11.3 0.00 0.00 0.00 64 1011.3
20190617220104 16 130 11.3 11.3 0.00 0.00 0.00 64 1011.3
20190617215604 16 130 11.3 11.3 0.00 0.00 0.00 64 1011.3
20190617215104 16 130 11.3 11.3 0.00 0.00 0.00 64 1011.4
20190617214105 16 130 11.3 11.3 0.00 0.00 0.00 63 1011.4
20190617213105 16 130 11.3 11.3 0.00 0.00 0.00 63 1011.4
20190617212605 16 130 11.3 11.3 0.00 0.00 0.00 63 1011.4
20190617212104 16 130 11.3 11.3 0.00 0.00 0.00 62 1011.3
20190617211104 17 120 11.3 11.3 0.00 0.00 0.00 61 1011.4
20190617210604 17 120 11.3 11.3 0.00 0.00 0.00 61 1011.4
20190617210105 17 120 11.3 11.3 0.00 0.00 0.00 60 1011.4
20190617205604 17 120 11.3 11.3 0.00 0.00 0.00 60 1011.4
20190617205104 17 120 11.3 11.3 0.00 0.00 0.00 59 1011.2
20190617204605 17 120 11.3 11.3 0.00 0.00 0.00 59 1011.2
20190617204104 17 300 0.0 0.0 0.00 0.00 0.00 58 1011.2
20190617203604 17 300 0.0 0.0 0.00 0.00 0.00 58 1011.2
20190617203104 18 300 0.0 0.0 0.00 0.00 0.00 58 1011.3
20190617202604 18 300 0.0 0.0 0.00 0.00 0.00 58 1011.3
20190617202105 18 300 0.0 0.0 0.00 0.00 0.00 58 1011.4
20190617201604 18 300 0.0 8.0 0.00 0.00 0.00 58 1011.4
20190617201104 18 300 8.0 8.0 0.00 0.00 0.00 57 1011.4
20190617200104 18 300 8.0 8.0 0.00 0.00 0.00 56 1011.5
20190617195104 19 300 8.0 8.0 0.00 0.00 0.00 57 1011.5
20190617194605 19 300 8.0 8.0 0.00 0.00 0.00 57 1011.5
20190617194104 19 300 8.0 8.0 0.00 0.00 0.00 56 1011.2
20190617193604 19 300 8.0 8.0 0.00 0.00 0.00 56 1011.2
20190617193104 20 300 8.0 8.0 0.00 0.00 0.00 56 1011.7
20190617192604 20 300 8.0 8.0 0.00 0.00 0.00 56 1011.7
20190617191105 20 290 11.3 11.3 0.00 0.00 0.00 54 1011.5
20190617190605 20 290 11.3 11.3 0.00 0.00 0.00 54 1011.5
20190617185104 21 290 11.3 11.3 0.00 0.00 0.00 55 1011.3
20190617184604 21 290 11.3 16.1 0.00 0.00 0.00 55 1011.3
20190617184104 21 350 16.1 16.1 0.00 0.00 0.00 55 1011.2
20190617183605 21 350 16.1 16.1 0.00 0.00 0.00 55 1011.2
20190617182104 21 350 16.1 16.1 0.00 0.00 0.00 55 1010.4
20190617181104 21 280 9.7 9.7 0.00 0.00 0.00 55 1010.3
20190617175105 21 280 9.7 9.7 0.00 0.00 0.00 56 1011.3
20190617174605 21 280 9.7 11.3 0.00 0.00 0.00 56 1011.3
20190617174104 21 280 11.3 11.3 0.00 0.00 0.00 56 1012.0
20190617173605 21 280 11.3 11.3 0.00 0.00 0.00 56 1012.0
20190617173104 21 280 11.3 11.3 0.00 0.00 0.00 54 1011.8
20190617172604 21 280 11.3 11.3 0.00 0.00 0.00 54 1011.8
20190617172105 21 280 11.3 11.3 0.00 0.00 0.00 55 1011.9
20190617171604 21 280 11.3 11.3 0.00 0.00 0.00 55 1011.9
20190617170604 21 270 9.7 9.7 0.00 0.00 0.00 56 1011.6
20190617170104 21 270 9.7 9.7 0.00 0.00 0.00 58 1011.5